sensor_id;sensor_type;location;lat;lon;timestamp;temperature;humidity
59855;DHT22;45732;52.850;6.896;2023-03-03T00:01:47;3.40;99.90
59855;DHT22;45732;52.850;6.896;2023-03-03T00:04:12;3.40;99.90
59855;DHT22;45732;52.850;6.896;2023-03-03T00:06:38;3.40;99.90
59855;DHT22;45732;52.850;6.896;2023-03-03T00:09:04;3.40;99.90
59855;DHT22;45732;52.850;6.896;2023-03-03T00:11:29;3.40;99.90
59855;DHT22;45732;52.850;6.896;2023-03-03T00:13:56;3.30;99.90
59855;DHT22;45732;52.850;6.896;2023-03-03T00:18:53;3.30;99.90
59855;DHT22;45732;52.850;6.896;2023-03-03T00:21:40;3.30;99.90
59855;DHT22;45732;52.850;6.896;2023-03-03T00:24:17;3.30;99.90
59855;DHT22;45732;52.850;6.896;2023-03-03T00:26:55;3.30;99.90
59855;DHT22;45732;52.850;6.896;2023-03-03T00:31:54;3.30;99.90
59855;DHT22;45732;52.850;6.896;2023-03-03T00:34:25;3.30;99.90
59855;DHT22;45732;52.850;6.896;2023-03-03T00:36:56;3.20;99.90
59855;DHT22;45732;52.850;6.896;2023-03-03T00:39:38;3.20;99.90
59855;DHT22;45732;52.850;6.896;2023-03-03T00:42:14;3.20;99.90
59855;DHT22;45732;52.850;6.896;2023-03-03T00:47:30;3.20;99.90
59855;DHT22;45732;52.850;6.896;2023-03-03T00:52:40;3.20;99.90
59855;DHT22;45732;52.850;6.896;2023-03-03T00:55:10;3.10;99.90
59855;DHT22;45732;52.850;6.896;2023-03-03T00:57:36;3.10;99.90
59855;DHT22;45732;52.850;6.896;2023-03-03T01:00:02;3.10;99.90
59855;DHT22;45732;52.850;6.896;2023-03-03T01:02:28;3.10;99.90
59855;DHT22;45732;52.850;6.896;2023-03-03T01:04:54;3.20;99.90
59855;DHT22;45732;52.850;6.896;2023-03-03T01:07:21;3.10;99.90
59855;DHT22;45732;52.850;6.896;2023-03-03T01:09:46;3.10;99.90
59855;DHT22;45732;52.850;6.896;2023-03-03T01:12:12;3.10;99.90
59855;DHT22;45732;52.850;6.896;2023-03-03T01:14:39;3.10;99.90
59855;DHT22;45732;52.850;6.896;2023-03-03T01:17:05;3.10;99.90
59855;DHT22;45732;52.850;6.896;2023-03-03T01:19:31;3.00;99.90
59855;DHT22;45732;52.850;6.896;2023-03-03T01:21:57;3.10;99.90
59855;DHT22;45732;52.850;6.896;2023-03-03T01:24:23;3.10;99.90
59855;DHT22;45732;52.850;6.896;2023-03-03T01:26:49;3.10;99.90
59855;DHT22;45732;52.850;6.896;2023-03-03T01:29:14;3.10;99.90
59855;DHT22;45732;52.850;6.896;2023-03-03T01:31:40;3.10;99.90
59855;DHT22;45732;52.850;6.896;2023-03-03T01:34:06;3.10;99.90
59855;DHT22;45732;52.850;6.896;2023-03-03T01:36:33;3.10;99.90
59855;DHT22;45732;52.850;6.896;2023-03-03T01:38:59;3.10;99.90
59855;DHT22;45732;52.850;6.896;2023-03-03T01:41:29;3.10;99.90
59855;DHT22;45732;52.850;6.896;2023-03-03T01:43:57;3.10;99.90
59855;DHT22;45732;52.850;6.896;2023-03-03T01:48:51;3.10;99.90
59855;DHT22;45732;52.850;6.896;2023-03-03T01:51:25;3.10;99.90
59855;DHT22;45732;52.850;6.896;2023-03-03T01:54:02;3.10;99.90
59855;DHT22;45732;52.850;6.896;2023-03-03T01:56:28;3.10;99.90
59855;DHT22;45732;52.850;6.896;2023-03-03T02:01:27;3.10;99.90
59855;DHT22;45732;52.850;6.896;2023-03-03T02:03:53;3.10;99.90
59855;DHT22;45732;52.850;6.896;2023-03-03T02:06:23;3.10;99.90
59855;DHT22;45732;52.850;6.896;2023-03-03T02:09:10;3.20;99.90
59855;DHT22;45732;52.850;6.896;2023-03-03T02:11:37;3.10;99.90
59855;DHT22;45732;52.850;6.896;2023-03-03T02:14:05;3.10;99.90
59855;DHT22;45732;52.850;6.896;2023-03-03T02:16:30;3.10;99.90
59855;DHT22;45732;52.850;6.896;2023-03-03T02:18:56;3.10;99.90
59855;DHT22;45732;52.850;6.896;2023-03-03T02:21:23;3.10;99.90
59855;DHT22;45732;52.850;6.896;2023-03-03T02:26:29;3.10;99.90
59855;DHT22;45732;52.850;6.896;2023-03-03T02:28:55;3.10;99.90
59855;DHT22;45732;52.850;6.896;2023-03-03T02:31:24;3.10;99.90
59855;DHT22;45732;52.850;6.896;2023-03-03T02:33:51;3.10;99.90
59855;DHT22;45732;52.850;6.896;2023-03-03T02:36:21;3.20;99.90
59855;DHT22;45732;52.850;6.896;2023-03-03T02:39:13;3.10;99.90
59855;DHT22;45732;52.850;6.896;2023-03-03T02:44:26;3.10;99.90
59855;DHT22;45732;52.850;6.896;2023-03-03T02:46:54;3.20;99.90
59855;DHT22;45732;52.850;6.896;2023-03-03T02:49:23;3.20;99.90
59855;DHT22;45732;52.850;6.896;2023-03-03T02:51:50;3.20;99.90
59855;DHT22;45732;52.850;6.896;2023-03-03T02:54:17;3.10;99.90
59855;DHT22;45732;52.850;6.896;2023-03-03T02:56:44;3.10;99.90
59855;DHT22;45732;52.850;6.896;2023-03-03T02:59:10;3.20;99.90
59855;DHT22;45732;52.850;6.896;2023-03-03T03:01:36;3.10;99.90
59855;DHT22;45732;52.850;6.896;2023-03-03T03:04:25;3.10;99.90
59855;DHT22;45732;52.850;6.896;2023-03-03T03:06:52;3.10;99.90
59855;DHT22;45732;52.850;6.896;2023-03-03T03:09:19;3.10;99.90
59855;DHT22;45732;52.850;6.896;2023-03-03T03:11:45;3.20;99.90
59855;DHT22;45732;52.850;6.896;2023-03-03T03:14:12;3.10;99.90
59855;DHT22;45732;52.850;6.896;2023-03-03T03:16:38;3.10;99.90
59855;DHT22;45732;52.850;6.896;2023-03-03T03:19:04;3.10;99.90
59855;DHT22;45732;52.850;6.896;2023-03-03T03:21:30;3.20;99.90
59855;DHT22;45732;52.850;6.896;2023-03-03T03:23:56;3.20;99.90
59855;DHT22;45732;52.850;6.896;2023-03-03T03:26:24;3.20;99.90
59855;DHT22;45732;52.850;6.896;2023-03-03T03:28:50;3.20;99.90
59855;DHT22;45732;52.850;6.896;2023-03-03T03:31:17;3.20;99.90
59855;DHT22;45732;52.850;6.896;2023-03-03T03:33:44;3.20;99.90
59855;DHT22;45732;52.850;6.896;2023-03-03T03:36:10;3.20;99.90
59855;DHT22;45732;52.850;6.896;2023-03-03T03:38:36;3.20;99.90
59855;DHT22;45732;52.850;6.896;2023-03-03T03:41:03;3.20;99.90
59855;DHT22;45732;52.850;6.896;2023-03-03T03:43:29;3.20;99.90
59855;DHT22;45732;52.850;6.896;2023-03-03T03:45:55;3.20;99.90
59855;DHT22;45732;52.850;6.896;2023-03-03T03:48:21;3.20;99.90
59855;DHT22;45732;52.850;6.896;2023-03-03T03:50:47;3.20;99.90
59855;DHT22;45732;52.850;6.896;2023-03-03T03:53:14;3.20;99.90
59855;DHT22;45732;52.850;6.896;2023-03-03T03:55:39;3.20;99.90
59855;DHT22;45732;52.850;6.896;2023-03-03T03:58:05;3.20;99.90
59855;DHT22;45732;52.850;6.896;2023-03-03T04:00:31;3.20;99.90
59855;DHT22;45732;52.850;6.896;2023-03-03T04:02:57;3.20;99.90
59855;DHT22;45732;52.850;6.896;2023-03-03T04:05:22;3.20;99.90
59855;DHT22;45732;52.850;6.896;2023-03-03T04:07:48;3.20;99.90
59855;DHT22;45732;52.850;6.896;2023-03-03T04:10:14;3.20;99.90
59855;DHT22;45732;52.850;6.896;2023-03-03T04:12:39;3.20;99.90
59855;DHT22;45732;52.850;6.896;2023-03-03T04:15:10;3.30;99.90
59855;DHT22;45732;52.850;6.896;2023-03-03T04:17:37;3.30;99.90
59855;DHT22;45732;52.850;6.896;2023-03-03T04:20:04;3.30;99.90
59855;DHT22;45732;52.850;6.896;2023-03-03T04:22:30;3.30;99.90
59855;DHT22;45732;52.850;6.896;2023-03-03T04:25:03;3.30;99.90
59855;DHT22;45732;52.850;6.896;2023-03-03T04:27:34;3.30;99.90
59855;DHT22;45732;52.850;6.896;2023-03-03T04:30:00;3.30;99.90
59855;DHT22;45732;52.850;6.896;2023-03-03T04:32:26;3.30;99.90
59855;DHT22;45732;52.850;6.896;2023-03-03T04:34:52;3.40;99.90
59855;DHT22;45732;52.850;6.896;2023-03-03T04:37:18;3.40;99.90
59855;DHT22;45732;52.850;6.896;2023-03-03T04:39:44;3.40;99.90
59855;DHT22;45732;52.850;6.896;2023-03-03T04:42:10;3.40;99.90
59855;DHT22;45732;52.850;6.896;2023-03-03T04:44:35;3.40;99.90
59855;DHT22;45732;52.850;6.896;2023-03-03T04:47:01;3.40;99.90
59855;DHT22;45732;52.850;6.896;2023-03-03T04:49:27;3.40;99.90
59855;DHT22;45732;52.850;6.896;2023-03-03T04:51:53;3.40;99.90
59855;DHT22;45732;52.850;6.896;2023-03-03T04:54:19;3.40;99.90
59855;DHT22;45732;52.850;6.896;2023-03-03T04:56:44;3.40;99.90
59855;DHT22;45732;52.850;6.896;2023-03-03T04:59:10;3.40;99.90
59855;DHT22;45732;52.850;6.896;2023-03-03T05:01:36;3.40;99.90
59855;DHT22;45732;52.850;6.896;2023-03-03T05:04:02;3.40;99.90
59855;DHT22;45732;52.850;6.896;2023-03-03T05:06:27;3.40;99.90
59855;DHT22;45732;52.850;6.896;2023-03-03T05:08:53;3.40;99.90
59855;DHT22;45732;52.850;6.896;2023-03-03T05:11:19;3.40;99.90
59855;DHT22;45732;52.850;6.896;2023-03-03T05:13:44;3.40;99.90
59855;DHT22;45732;52.850;6.896;2023-03-03T05:16:10;3.40;99.90
59855;DHT22;45732;52.850;6.896;2023-03-03T05:18:36;3.50;99.90
59855;DHT22;45732;52.850;6.896;2023-03-03T05:21:02;3.50;99.90
59855;DHT22;45732;52.850;6.896;2023-03-03T05:23:28;3.40;99.90
59855;DHT22;45732;52.850;6.896;2023-03-03T05:25:53;3.40;99.90
59855;DHT22;45732;52.850;6.896;2023-03-03T05:28:19;3.40;99.90
59855;DHT22;45732;52.850;6.896;2023-03-03T05:30:45;3.40;99.90
59855;DHT22;45732;52.850;6.896;2023-03-03T05:33:13;3.40;99.90
59855;DHT22;45732;52.850;6.896;2023-03-03T05:35:39;3.40;99.90
59855;DHT22;45732;52.850;6.896;2023-03-03T05:38:05;3.40;99.90
59855;DHT22;45732;52.850;6.896;2023-03-03T05:40:30;3.40;99.90
59855;DHT22;45732;52.850;6.896;2023-03-03T05:42:56;3.40;99.90
59855;DHT22;45732;52.850;6.896;2023-03-03T05:45:22;3.40;99.90
59855;DHT22;45732;52.850;6.896;2023-03-03T05:47:52;3.40;99.90
59855;DHT22;45732;52.850;6.896;2023-03-03T05:50:22;3.40;99.90
59855;DHT22;45732;52.850;6.896;2023-03-03T05:52:51;3.40;99.90
59855;DHT22;45732;52.850;6.896;2023-03-03T05:55:18;3.40;99.90
59855;DHT22;45732;52.850;6.896;2023-03-03T05:57:44;3.40;99.90
59855;DHT22;45732;52.850;6.896;2023-03-03T06:00:11;3.40;99.90
59855;DHT22;45732;52.850;6.896;2023-03-03T06:02:37;3.40;99.90
59855;DHT22;45732;52.850;6.896;2023-03-03T06:05:03;3.40;99.90
59855;DHT22;45732;52.850;6.896;2023-03-03T06:07:28;3.40;99.90
59855;DHT22;45732;52.850;6.896;2023-03-03T06:09:54;3.40;99.90
59855;DHT22;45732;52.850;6.896;2023-03-03T06:12:20;3.40;99.90
59855;DHT22;45732;52.850;6.896;2023-03-03T06:14:46;3.40;99.90
59855;DHT22;45732;52.850;6.896;2023-03-03T06:17:12;3.40;99.90
59855;DHT22;45732;52.850;6.896;2023-03-03T06:19:38;3.40;99.90
59855;DHT22;45732;52.850;6.896;2023-03-03T06:22:03;3.40;99.90
59855;DHT22;45732;52.850;6.896;2023-03-03T06:24:29;3.40;99.90
59855;DHT22;45732;52.850;6.896;2023-03-03T06:26:59;3.50;99.90
59855;DHT22;45732;52.850;6.896;2023-03-03T06:29:26;3.50;99.90
59855;DHT22;45732;52.850;6.896;2023-03-03T06:31:52;3.50;99.90
59855;DHT22;45732;52.850;6.896;2023-03-03T06:34:18;3.50;99.90
59855;DHT22;45732;52.850;6.896;2023-03-03T06:36:44;3.50;99.90
59855;DHT22;45732;52.850;6.896;2023-03-03T06:39:10;3.50;99.90
59855;DHT22;45732;52.850;6.896;2023-03-03T06:41:36;3.50;99.90
59855;DHT22;45732;52.850;6.896;2023-03-03T06:44:02;3.50;99.90
59855;DHT22;45732;52.850;6.896;2023-03-03T06:46:28;3.50;99.90
59855;DHT22;45732;52.850;6.896;2023-03-03T06:48:54;3.50;99.90
59855;DHT22;45732;52.850;6.896;2023-03-03T06:51:25;3.50;99.90
59855;DHT22;45732;52.850;6.896;2023-03-03T06:53:56;3.50;99.90
59855;DHT22;45732;52.850;6.896;2023-03-03T06:56:25;3.50;99.90
59855;DHT22;45732;52.850;6.896;2023-03-03T06:58:55;3.50;99.90
59855;DHT22;45732;52.850;6.896;2023-03-03T07:01:22;3.50;99.90
59855;DHT22;45732;52.850;6.896;2023-03-03T07:03:48;3.50;99.90
59855;DHT22;45732;52.850;6.896;2023-03-03T07:06:20;3.50;99.90
59855;DHT22;45732;52.850;6.896;2023-03-03T07:08:47;3.50;99.90
59855;DHT22;45732;52.850;6.896;2023-03-03T07:11:16;3.50;99.90
59855;DHT22;45732;52.850;6.896;2023-03-03T07:13:48;3.50;99.90
59855;DHT22;45732;52.850;6.896;2023-03-03T07:16:15;3.50;99.90
59855;DHT22;45732;52.850;6.896;2023-03-03T07:18:58;3.60;99.90
59855;DHT22;45732;52.850;6.896;2023-03-03T07:21:32;3.50;99.90
59855;DHT22;45732;52.850;6.896;2023-03-03T07:24:00;3.50;99.90
59855;DHT22;45732;52.850;6.896;2023-03-03T07:26:29;3.50;99.90
59855;DHT22;45732;52.850;6.896;2023-03-03T07:29:24;3.50;99.90
59855;DHT22;45732;52.850;6.896;2023-03-03T07:31:53;3.50;99.90
59855;DHT22;45732;52.850;6.896;2023-03-03T07:34:42;3.50;99.90
59855;DHT22;45732;52.850;6.896;2023-03-03T07:37:15;3.60;99.90
59855;DHT22;45732;52.850;6.896;2023-03-03T07:39:44;3.60;99.90
59855;DHT22;45732;52.850;6.896;2023-03-03T07:42:29;3.60;99.90
59855;DHT22;45732;52.850;6.896;2023-03-03T07:44:59;3.60;99.90
59855;DHT22;45732;52.850;6.896;2023-03-03T07:47:34;3.50;99.90
59855;DHT22;45732;52.850;6.896;2023-03-03T07:50:12;3.60;99.90
59855;DHT22;45732;52.850;6.896;2023-03-03T07:52:40;3.60;99.90
59855;DHT22;45732;52.850;6.896;2023-03-03T07:55:30;3.60;99.90
59855;DHT22;45732;52.850;6.896;2023-03-03T07:58:13;3.70;99.90
59855;DHT22;45732;52.850;6.896;2023-03-03T08:03:44;3.80;99.90
59855;DHT22;45732;52.850;6.896;2023-03-03T08:06:39;3.80;99.90
59855;DHT22;45732;52.850;6.896;2023-03-03T08:11:36;3.90;99.90
59855;DHT22;45732;52.850;6.896;2023-03-03T08:14:09;3.90;99.90
59855;DHT22;45732;52.850;6.896;2023-03-03T08:16:37;4.00;99.90
59855;DHT22;45732;52.850;6.896;2023-03-03T08:19:04;4.10;99.90
59855;DHT22;45732;52.850;6.896;2023-03-03T08:21:31;4.10;99.90
59855;DHT22;45732;52.850;6.896;2023-03-03T08:23:58;4.20;99.90
59855;DHT22;45732;52.850;6.896;2023-03-03T08:26:24;4.20;99.90
59855;DHT22;45732;52.850;6.896;2023-03-03T08:28:51;4.20;99.90
59855;DHT22;45732;52.850;6.896;2023-03-03T08:31:17;4.20;99.90
59855;DHT22;45732;52.850;6.896;2023-03-03T08:33:43;4.30;99.90
59855;DHT22;45732;52.850;6.896;2023-03-03T08:36:10;4.30;99.90
59855;DHT22;45732;52.850;6.896;2023-03-03T08:38:36;4.30;99.90
59855;DHT22;45732;52.850;6.896;2023-03-03T08:41:02;4.40;99.90
59855;DHT22;45732;52.850;6.896;2023-03-03T08:43:28;4.40;99.90
59855;DHT22;45732;52.850;6.896;2023-03-03T08:45:58;4.50;99.90
59855;DHT22;45732;52.850;6.896;2023-03-03T08:48:24;4.50;99.90
59855;DHT22;45732;52.850;6.896;2023-03-03T08:50:50;4.60;99.90
59855;DHT22;45732;52.850;6.896;2023-03-03T08:53:18;4.60;99.90
59855;DHT22;45732;52.850;6.896;2023-03-03T08:55:44;4.60;99.90
59855;DHT22;45732;52.850;6.896;2023-03-03T08:58:10;4.60;99.90
59855;DHT22;45732;52.850;6.896;2023-03-03T09:00:36;4.70;99.90
59855;DHT22;45732;52.850;6.896;2023-03-03T09:03:03;4.80;99.90
59855;DHT22;45732;52.850;6.896;2023-03-03T09:05:32;4.80;99.90
59855;DHT22;45732;52.850;6.896;2023-03-03T09:07:58;4.90;99.90
59855;DHT22;45732;52.850;6.896;2023-03-03T09:10:27;4.80;99.90
59855;DHT22;45732;52.850;6.896;2023-03-03T09:12:54;4.90;99.90
59855;DHT22;45732;52.850;6.896;2023-03-03T09:17:52;4.90;99.90
59855;DHT22;45732;52.850;6.896;2023-03-03T09:23:15;4.90;99.90
59855;DHT22;45732;52.850;6.896;2023-03-03T09:25:45;4.90;99.90
59855;DHT22;45732;52.850;6.896;2023-03-03T09:28:27;5.00;99.90
59855;DHT22;45732;52.850;6.896;2023-03-03T09:30:55;5.00;99.90
59855;DHT22;45732;52.850;6.896;2023-03-03T09:33:26;4.90;99.90
59855;DHT22;45732;52.850;6.896;2023-03-03T09:36:39;4.90;99.90
59855;DHT22;45732;52.850;6.896;2023-03-03T09:38:46;5.00;99.90
59855;DHT22;45732;52.850;6.896;2023-03-03T09:57:50;5.40;99.90
59855;DHT22;45732;52.850;6.896;2023-03-03T10:00:53;5.40;99.90
59855;DHT22;45732;52.850;6.896;2023-03-03T10:06:54;5.40;99.90
59855;DHT22;45732;52.850;6.896;2023-03-03T10:17:51;5.30;99.90
59855;DHT22;45732;52.850;6.896;2023-03-03T10:57:34;5.30;99.90
59855;DHT22;45732;52.850;6.896;2023-03-03T11:00:12;5.40;99.90
59855;DHT22;45732;52.850;6.896;2023-03-03T11:08:08;5.70;99.90
59855;DHT22;45732;52.850;6.896;2023-03-03T11:16:44;5.90;99.90
59855;DHT22;45732;52.850;6.896;2023-03-03T11:24:54;6.10;99.90
59855;DHT22;45732;52.850;6.896;2023-03-03T11:30:39;6.30;99.90
59855;DHT22;45732;52.850;6.896;2023-03-03T11:36:11;6.40;99.90
59855;DHT22;45732;52.850;6.896;2023-03-03T11:39:03;6.40;99.90
59855;DHT22;45732;52.850;6.896;2023-03-03T11:41:41;6.40;99.90
59855;DHT22;45732;52.850;6.896;2023-03-03T11:44:31;6.40;99.90
59855;DHT22;45732;52.850;6.896;2023-03-03T11:47:11;6.50;99.90
59855;DHT22;45732;52.850;6.896;2023-03-03T11:52:49;6.60;99.90
59855;DHT22;45732;52.850;6.896;2023-03-03T12:00:53;6.60;99.90
59855;DHT22;45732;52.850;6.896;2023-03-03T12:03:33;6.70;99.90
59855;DHT22;45732;52.850;6.896;2023-03-03T12:14:05;6.90;99.90
59855;DHT22;45732;52.850;6.896;2023-03-03T12:17:14;7.00;99.90
59855;DHT22;45732;52.850;6.896;2023-03-03T12:26:10;7.20;99.90
59855;DHT22;45732;52.850;6.896;2023-03-03T12:29:01;7.20;99.90
59855;DHT22;45732;52.850;6.896;2023-03-03T12:34:35;7.30;99.90
59855;DHT22;45732;52.850;6.896;2023-03-03T12:44:57;7.30;99.90
59855;DHT22;45732;52.850;6.896;2023-03-03T12:47:38;7.20;99.90
59855;DHT22;45732;52.850;6.896;2023-03-03T12:52:45;7.20;99.90
59855;DHT22;45732;52.850;6.896;2023-03-03T12:55:52;7.20;99.90
59855;DHT22;45732;52.850;6.896;2023-03-03T13:07:09;7.30;99.90
59855;DHT22;45732;52.850;6.896;2023-03-03T13:25:58;7.60;99.90
59855;DHT22;45732;52.850;6.896;2023-03-03T13:31:38;7.80;99.90
59855;DHT22;45732;52.850;6.896;2023-03-03T13:34:04;7.80;99.90
59855;DHT22;45732;52.850;6.896;2023-03-03T13:36:52;7.90;99.90
59855;DHT22;45732;52.850;6.896;2023-03-03T13:39:24;7.90;99.90
59855;DHT22;45732;52.850;6.896;2023-03-03T13:44:37;7.90;99.90
59855;DHT22;45732;52.850;6.896;2023-03-03T13:47:22;8.00;99.90
59855;DHT22;45732;52.850;6.896;2023-03-03T13:52:52;7.90;99.90
59855;DHT22;45732;52.850;6.896;2023-03-03T13:55:29;7.80;99.90
59855;DHT22;45732;52.850;6.896;2023-03-03T14:00:35;7.80;99.90
59855;DHT22;45732;52.850;6.896;2023-03-03T14:03:14;7.90;99.90
59855;DHT22;45732;52.850;6.896;2023-03-03T14:11:45;8.10;99.90
59855;DHT22;45732;52.850;6.896;2023-03-03T14:17:22;8.00;99.90
59855;DHT22;45732;52.850;6.896;2023-03-03T14:20:21;8.00;99.90
59855;DHT22;45732;52.850;6.896;2023-03-03T14:25:23;7.90;99.90
59855;DHT22;45732;52.850;6.896;2023-03-03T14:28:00;7.90;99.90
59855;DHT22;45732;52.850;6.896;2023-03-03T14:30:31;8.10;99.90
59855;DHT22;45732;52.850;6.896;2023-03-03T14:35:33;8.40;99.90
59855;DHT22;45732;52.850;6.896;2023-03-03T14:38:12;8.40;99.90
59855;DHT22;45732;52.850;6.896;2023-03-03T14:40:43;8.20;99.90
59855;DHT22;45732;52.850;6.896;2023-03-03T14:45:48;8.00;99.90
59855;DHT22;45732;52.850;6.896;2023-03-03T14:48:24;7.90;99.90
59855;DHT22;45732;52.850;6.896;2023-03-03T14:50:59;7.90;99.90
59855;DHT22;45732;52.850;6.896;2023-03-03T14:53:44;8.00;99.90
59855;DHT22;45732;52.850;6.896;2023-03-03T14:56:34;8.00;99.90
59855;DHT22;45732;52.850;6.896;2023-03-03T14:59:20;8.10;99.90
59855;DHT22;45732;52.850;6.896;2023-03-03T15:01:57;8.20;99.90
59855;DHT22;45732;52.850;6.896;2023-03-03T15:04:25;8.30;99.90
59855;DHT22;45732;52.850;6.896;2023-03-03T15:06:53;8.30;99.90
59855;DHT22;45732;52.850;6.896;2023-03-03T15:09:28;8.30;99.90
59855;DHT22;45732;52.850;6.896;2023-03-03T15:11:56;8.20;99.90
59855;DHT22;45732;52.850;6.896;2023-03-03T15:14:37;8.20;99.90
59855;DHT22;45732;52.850;6.896;2023-03-03T15:24:59;8.00;99.90
59855;DHT22;45732;52.850;6.896;2023-03-03T15:27:38;8.00;99.90
59855;DHT22;45732;52.850;6.896;2023-03-03T15:30:24;8.00;99.90
59855;DHT22;45732;52.850;6.896;2023-03-03T15:36:02;7.80;99.90
59855;DHT22;45732;52.850;6.896;2023-03-03T15:41:37;7.70;99.90
59855;DHT22;45732;52.850;6.896;2023-03-03T16:03:18;7.70;99.90
59855;DHT22;45732;52.850;6.896;2023-03-03T16:05:54;7.70;99.90
59855;DHT22;45732;52.850;6.896;2023-03-03T16:11:48;7.70;99.90
59855;DHT22;45732;52.850;6.896;2023-03-03T16:17:36;7.60;99.90
59855;DHT22;45732;52.850;6.896;2023-03-03T16:20:18;7.50;99.90
59855;DHT22;45732;52.850;6.896;2023-03-03T16:23:13;7.50;99.90
59855;DHT22;45732;52.850;6.896;2023-03-03T16:28:27;7.50;99.90
59855;DHT22;45732;52.850;6.896;2023-03-03T16:33:35;7.40;99.90
59855;DHT22;45732;52.850;6.896;2023-03-03T16:36:07;7.40;99.90
59855;DHT22;45732;52.850;6.896;2023-03-03T16:38:40;7.40;99.90
59855;DHT22;45732;52.850;6.896;2023-03-03T16:41:14;7.40;99.90
59855;DHT22;45732;52.850;6.896;2023-03-03T16:46:37;7.20;99.90
59855;DHT22;45732;52.850;6.896;2023-03-03T16:49:32;7.20;99.90
59855;DHT22;45732;52.850;6.896;2023-03-03T16:52:07;7.10;99.90
59855;DHT22;45732;52.850;6.896;2023-03-03T16:54:49;7.10;99.90
59855;DHT22;45732;52.850;6.896;2023-03-03T17:00:08;7.10;99.90
59855;DHT22;45732;52.850;6.896;2023-03-03T17:02:54;7.00;99.90
59855;DHT22;45732;52.850;6.896;2023-03-03T17:16:46;6.90;99.90
59855;DHT22;45732;52.850;6.896;2023-03-03T17:22:19;6.80;99.90
59855;DHT22;45732;52.850;6.896;2023-03-03T17:30:16;6.80;99.90
59855;DHT22;45732;52.850;6.896;2023-03-03T17:46:51;6.90;99.90
59855;DHT22;45732;52.850;6.896;2023-03-03T17:52:25;6.80;99.90
59855;DHT22;45732;52.850;6.896;2023-03-03T17:55:36;6.80;99.90
59855;DHT22;45732;52.850;6.896;2023-03-03T18:06:41;6.80;99.90
59855;DHT22;45732;52.850;6.896;2023-03-03T18:09:37;6.80;99.90
59855;DHT22;45732;52.850;6.896;2023-03-03T18:22:51;6.80;99.90
59855;DHT22;45732;52.850;6.896;2023-03-03T18:30:30;6.80;99.90
59855;DHT22;45732;52.850;6.896;2023-03-03T18:38:54;6.80;99.90
59855;DHT22;45732;52.850;6.896;2023-03-03T18:41:25;6.80;99.90
59855;DHT22;45732;52.850;6.896;2023-03-03T18:48:52;6.80;99.90
59855;DHT22;45732;52.850;6.896;2023-03-03T19:05:05;6.70;99.90
59855;DHT22;45732;52.850;6.896;2023-03-03T19:07:41;6.70;99.90
59855;DHT22;45732;52.850;6.896;2023-03-03T19:18:04;6.70;99.90
59855;DHT22;45732;52.850;6.896;2023-03-03T19:20:42;6.80;99.90
59855;DHT22;45732;52.850;6.896;2023-03-03T19:23:21;6.80;99.90
59855;DHT22;45732;52.850;6.896;2023-03-03T19:29:02;6.80;99.90
59855;DHT22;45732;52.850;6.896;2023-03-03T19:31:32;6.70;99.90
59855;DHT22;45732;52.850;6.896;2023-03-03T19:34:04;6.70;99.90
59855;DHT22;45732;52.850;6.896;2023-03-03T19:45:20;6.70;99.90
59855;DHT22;45732;52.850;6.896;2023-03-03T19:47:57;6.70;99.90
59855;DHT22;45732;52.850;6.896;2023-03-03T19:51:04;6.70;99.90
59855;DHT22;45732;52.850;6.896;2023-03-03T19:59:36;6.70;99.90
59855;DHT22;45732;52.850;6.896;2023-03-03T20:13:33;6.70;99.90
59855;DHT22;45732;52.850;6.896;2023-03-03T20:21:34;6.70;99.90
59855;DHT22;45732;52.850;6.896;2023-03-03T20:24:43;6.60;99.90
59855;DHT22;45732;52.850;6.896;2023-03-03T20:29:45;6.70;99.90
59855;DHT22;45732;52.850;6.896;2023-03-03T20:35:05;6.70;99.90
59855;DHT22;45732;52.850;6.896;2023-03-03T20:43:12;6.70;99.90
59855;DHT22;45732;52.850;6.896;2023-03-03T20:48:46;6.70;99.90
59855;DHT22;45732;52.850;6.896;2023-03-03T20:51:42;6.70;99.90
59855;DHT22;45732;52.850;6.896;2023-03-03T20:57:21;6.70;99.90
59855;DHT22;45732;52.850;6.896;2023-03-03T21:05:12;6.70;99.90
59855;DHT22;45732;52.850;6.896;2023-03-03T21:07:52;6.70;99.90
59855;DHT22;45732;52.850;6.896;2023-03-03T21:10:33;6.60;99.90
59855;DHT22;45732;52.850;6.896;2023-03-03T21:16:02;6.70;99.90
59855;DHT22;45732;52.850;6.896;2023-03-03T21:18:30;6.70;99.90
59855;DHT22;45732;52.850;6.896;2023-03-03T21:20:56;6.70;99.90
59855;DHT22;45732;52.850;6.896;2023-03-03T21:23:22;6.70;99.90
59855;DHT22;45732;52.850;6.896;2023-03-03T21:25:50;6.70;99.90
59855;DHT22;45732;52.850;6.896;2023-03-03T21:28:19;6.70;99.90
59855;DHT22;45732;52.850;6.896;2023-03-03T21:31:15;6.70;99.90
59855;DHT22;45732;52.850;6.896;2023-03-03T21:36:43;6.70;99.90
59855;DHT22;45732;52.850;6.896;2023-03-03T21:38:56;6.70;99.90
59855;DHT22;45732;52.850;6.896;2023-03-03T21:41:23;6.70;99.90
59855;DHT22;45732;52.850;6.896;2023-03-03T21:43:51;6.70;99.90
59855;DHT22;45732;52.850;6.896;2023-03-03T21:46:22;6.70;99.90
59855;DHT22;45732;52.850;6.896;2023-03-03T21:48:49;6.70;99.90
59855;DHT22;45732;52.850;6.896;2023-03-03T21:51:15;6.70;99.90
59855;DHT22;45732;52.850;6.896;2023-03-03T21:53:42;6.70;99.90
59855;DHT22;45732;52.850;6.896;2023-03-03T21:56:10;6.70;99.90
59855;DHT22;45732;52.850;6.896;2023-03-03T21:58:38;6.70;99.90
59855;DHT22;45732;52.850;6.896;2023-03-03T22:01:05;6.70;99.90
59855;DHT22;45732;52.850;6.896;2023-03-03T22:03:31;6.70;99.90
59855;DHT22;45732;52.850;6.896;2023-03-03T22:05:57;6.70;99.90
59855;DHT22;45732;52.850;6.896;2023-03-03T22:08:22;6.70;99.90
59855;DHT22;45732;52.850;6.896;2023-03-03T22:10:49;6.70;99.90
59855;DHT22;45732;52.850;6.896;2023-03-03T22:13:18;6.70;99.90
59855;DHT22;45732;52.850;6.896;2023-03-03T22:15:46;6.70;99.90
59855;DHT22;45732;52.850;6.896;2023-03-03T22:18:12;6.70;99.90
59855;DHT22;45732;52.850;6.896;2023-03-03T22:20:38;6.60;99.90
59855;DHT22;45732;52.850;6.896;2023-03-03T22:23:03;6.60;99.90
59855;DHT22;45732;52.850;6.896;2023-03-03T22:25:29;6.70;99.90
59855;DHT22;45732;52.850;6.896;2023-03-03T22:27:55;6.70;99.90
59855;DHT22;45732;52.850;6.896;2023-03-03T22:30:20;6.70;99.90
59855;DHT22;45732;52.850;6.896;2023-03-03T22:32:46;6.70;99.90
59855;DHT22;45732;52.850;6.896;2023-03-03T22:35:16;6.70;99.90
59855;DHT22;45732;52.850;6.896;2023-03-03T22:37:43;6.70;99.90
59855;DHT22;45732;52.850;6.896;2023-03-03T22:40:09;6.70;99.90
59855;DHT22;45732;52.850;6.896;2023-03-03T22:42:35;6.70;99.90
59855;DHT22;45732;52.850;6.896;2023-03-03T22:45:01;6.70;99.90
59855;DHT22;45732;52.850;6.896;2023-03-03T22:47:27;6.70;99.90
59855;DHT22;45732;52.850;6.896;2023-03-03T22:49:52;6.70;99.90
59855;DHT22;45732;52.850;6.896;2023-03-03T22:52:18;6.70;99.90
59855;DHT22;45732;52.850;6.896;2023-03-03T22:54:44;6.70;99.90
59855;DHT22;45732;52.850;6.896;2023-03-03T22:57:09;6.70;99.90
59855;DHT22;45732;52.850;6.896;2023-03-03T22:59:35;6.60;99.90
59855;DHT22;45732;52.850;6.896;2023-03-03T23:02:01;6.70;99.90
59855;DHT22;45732;52.850;6.896;2023-03-03T23:04:27;6.60;99.90
59855;DHT22;45732;52.850;6.896;2023-03-03T23:06:52;6.60;99.90